sensor_id;sensor_type;location;lat;lon;timestamp;P1;durP1;ratioP1;P2;durP2;ratioP2
59016;SDS011;44800;55.600;38.134;2023-07-08T00:00:20;96.25;;;37.85;;
59016;SDS011;44800;55.600;38.134;2023-07-08T00:02:51;93.75;;;40.53;;
59016;SDS011;44800;55.600;38.134;2023-07-08T00:05:21;82.55;;;36.25;;
59016;SDS011;44800;55.600;38.134;2023-07-08T00:07:50;89.85;;;39.00;;
59016;SDS011;44800;55.600;38.134;2023-07-08T00:10:20;80.13;;;35.30;;
59016;SDS011;44800;55.600;38.134;2023-07-08T00:12:50;77.13;;;33.70;;
59016;SDS011;44800;55.600;38.134;2023-07-08T00:15:21;98.93;;;40.17;;
59016;SDS011;44800;55.600;38.134;2023-07-08T00:17:54;103.17;;;45.17;;
59016;SDS011;44800;55.600;38.134;2023-07-08T00:20:23;92.43;;;41.33;;
59016;SDS011;44800;55.600;38.134;2023-07-08T00:22:58;93.97;;;37.97;;
59016;SDS011;44800;55.600;38.134;2023-07-08T00:25:27;94.00;;;42.58;;
59016;SDS011;44800;55.600;38.134;2023-07-08T00:27:55;99.07;;;41.60;;
59016;SDS011;44800;55.600;38.134;2023-07-08T00:30:25;89.05;;;38.63;;
59016;SDS011;44800;55.600;38.134;2023-07-08T00:32:56;75.25;;;34.92;;
59016;SDS011;44800;55.600;38.134;2023-07-08T00:35:28;85.75;;;37.47;;
59016;SDS011;44800;55.600;38.134;2023-07-08T00:37:58;89.22;;;40.35;;
59016;SDS011;44800;55.600;38.134;2023-07-08T00:40:30;80.03;;;36.85;;
59016;SDS011;44800;55.600;38.134;2023-07-08T00:43:01;76.90;;;35.45;;
59016;SDS011;44800;55.600;38.134;2023-07-08T00:45:38;82.53;;;36.00;;
59016;SDS011;44800;55.600;38.134;2023-07-08T00:48:29;86.63;;;36.88;;
59016;SDS011;44800;55.600;38.134;2023-07-08T00:50:58;91.80;;;39.58;;
59016;SDS011;44800;55.600;38.134;2023-07-08T00:53:28;81.63;;;35.55;;
59016;SDS011;44800;55.600;38.134;2023-07-08T00:55:59;78.53;;;35.30;;
59016;SDS011;44800;55.600;38.134;2023-07-08T00:58:31;77.25;;;33.15;;
59016;SDS011;44800;55.600;38.134;2023-07-08T01:01:03;74.70;;;33.13;;
59016;SDS011;44800;55.600;38.134;2023-07-08T01:03:36;71.90;;;34.15;;
59016;SDS011;44800;55.600;38.134;2023-07-08T01:06:08;78.82;;;31.20;;
59016;SDS011;44800;55.600;38.134;2023-07-08T01:08:37;72.30;;;32.33;;
59016;SDS011;44800;55.600;38.134;2023-07-08T01:11:05;69.75;;;32.45;;
59016;SDS011;44800;55.600;38.134;2023-07-08T01:13:35;68.38;;;31.60;;
59016;SDS011;44800;55.600;38.134;2023-07-08T01:18:36;77.05;;;31.27;;
59016;SDS011;44800;55.600;38.134;2023-07-08T01:21:06;75.57;;;30.48;;
59016;SDS011;44800;55.600;38.134;2023-07-08T01:23:58;75.85;;;31.63;;
59016;SDS011;44800;55.600;38.134;2023-07-08T01:26:27;69.15;;;30.88;;
59016;SDS011;44800;55.600;38.134;2023-07-08T01:28:58;75.15;;;32.00;;
59016;SDS011;44800;55.600;38.134;2023-07-08T01:31:27;68.10;;;30.20;;
59016;SDS011;44800;55.600;38.134;2023-07-08T01:33:56;81.78;;;34.30;;
59016;SDS011;44800;55.600;38.134;2023-07-08T01:36:24;78.28;;;31.92;;
59016;SDS011;44800;55.600;38.134;2023-07-08T01:38:58;75.93;;;32.83;;
59016;SDS011;44800;55.600;38.134;2023-07-08T01:41:26;76.57;;;32.00;;
59016;SDS011;44800;55.600;38.134;2023-07-08T01:43:55;65.70;;;33.20;;
59016;SDS011;44800;55.600;38.134;2023-07-08T01:46:25;67.80;;;29.80;;
59016;SDS011;44800;55.600;38.134;2023-07-08T01:48:56;69.68;;;30.42;;
59016;SDS011;44800;55.600;38.134;2023-07-08T01:51:25;66.93;;;29.08;;
59016;SDS011;44800;55.600;38.134;2023-07-08T01:53:54;70.65;;;32.72;;
59016;SDS011;44800;55.600;38.134;2023-07-08T01:56:24;70.80;;;29.85;;
59016;SDS011;44800;55.600;38.134;2023-07-08T01:58:53;67.75;;;30.77;;
59016;SDS011;44800;55.600;38.134;2023-07-08T02:01:21;69.88;;;28.23;;
59016;SDS011;44800;55.600;38.134;2023-07-08T02:03:50;69.22;;;29.70;;
59016;SDS011;44800;55.600;38.134;2023-07-08T02:06:18;66.80;;;29.20;;
59016;SDS011;44800;55.600;38.134;2023-07-08T02:08:47;73.63;;;32.22;;
59016;SDS011;44800;55.600;38.134;2023-07-08T02:11:16;65.47;;;29.40;;
59016;SDS011;44800;55.600;38.134;2023-07-08T02:13:46;82.43;;;31.83;;
59016;SDS011;44800;55.600;38.134;2023-07-08T02:16:16;74.68;;;28.52;;
59016;SDS011;44800;55.600;38.134;2023-07-08T02:18:45;66.82;;;27.92;;
59016;SDS011;44800;55.600;38.134;2023-07-08T02:21:14;70.65;;;30.52;;
59016;SDS011;44800;55.600;38.134;2023-07-08T02:23:46;57.55;;;26.98;;
59016;SDS011;44800;55.600;38.134;2023-07-08T02:26:18;66.00;;;28.77;;
59016;SDS011;44800;55.600;38.134;2023-07-08T02:28:48;66.40;;;28.35;;
59016;SDS011;44800;55.600;38.134;2023-07-08T02:31:16;66.63;;;29.55;;
59016;SDS011;44800;55.600;38.134;2023-07-08T02:33:45;66.60;;;28.40;;
59016;SDS011;44800;55.600;38.134;2023-07-08T02:36:13;62.88;;;30.20;;
59016;SDS011;44800;55.600;38.134;2023-07-08T02:38:42;68.97;;;30.25;;
59016;SDS011;44800;55.600;38.134;2023-07-08T02:41:10;59.00;;;28.27;;
59016;SDS011;44800;55.600;38.134;2023-07-08T02:43:39;71.20;;;28.52;;
59016;SDS011;44800;55.600;38.134;2023-07-08T02:46:09;65.47;;;28.45;;
59016;SDS011;44800;55.600;38.134;2023-07-08T02:48:38;58.35;;;27.60;;
59016;SDS011;44800;55.600;38.134;2023-07-08T02:51:07;63.60;;;28.52;;
59016;SDS011;44800;55.600;38.134;2023-07-08T02:53:36;60.08;;;28.20;;
59016;SDS011;44800;55.600;38.134;2023-07-08T02:56:05;62.78;;;28.80;;
59016;SDS011;44800;55.600;38.134;2023-07-08T02:58:33;60.55;;;26.83;;
59016;SDS011;44800;55.600;38.134;2023-07-08T03:01:02;61.47;;;26.45;;
59016;SDS011;44800;55.600;38.134;2023-07-08T03:03:34;67.60;;;28.55;;
59016;SDS011;44800;55.600;38.134;2023-07-08T03:06:04;59.33;;;26.55;;
59016;SDS011;44800;55.600;38.134;2023-07-08T03:08:33;62.35;;;26.98;;
59016;SDS011;44800;55.600;38.134;2023-07-08T03:11:05;60.72;;;27.42;;
59016;SDS011;44800;55.600;38.134;2023-07-08T03:13:35;63.90;;;27.58;;
59016;SDS011;44800;55.600;38.134;2023-07-08T03:16:04;63.28;;;28.00;;
59016;SDS011;44800;55.600;38.134;2023-07-08T03:18:41;61.58;;;27.42;;
59016;SDS011;44800;55.600;38.134;2023-07-08T03:21:14;60.25;;;25.65;;
59016;SDS011;44800;55.600;38.134;2023-07-08T03:23:44;56.88;;;25.02;;
59016;SDS011;44800;55.600;38.134;2023-07-08T03:26:13;58.97;;;25.13;;
59016;SDS011;44800;55.600;38.134;2023-07-08T03:28:43;58.90;;;26.42;;
59016;SDS011;44800;55.600;38.134;2023-07-08T03:31:11;60.65;;;26.65;;
59016;SDS011;44800;55.600;38.134;2023-07-08T03:33:41;58.25;;;24.90;;
59016;SDS011;44800;55.600;38.134;2023-07-08T03:36:11;53.75;;;24.02;;
59016;SDS011;44800;55.600;38.134;2023-07-08T03:38:49;52.47;;;24.65;;
59016;SDS011;44800;55.600;38.134;2023-07-08T03:41:18;50.63;;;23.58;;
59016;SDS011;44800;55.600;38.134;2023-07-08T03:43:47;57.40;;;25.48;;
59016;SDS011;44800;55.600;38.134;2023-07-08T03:46:17;58.38;;;25.13;;
59016;SDS011;44800;55.600;38.134;2023-07-08T03:48:49;55.58;;;24.92;;
59016;SDS011;44800;55.600;38.134;2023-07-08T03:51:20;60.83;;;26.77;;
59016;SDS011;44800;55.600;38.134;2023-07-08T03:53:50;44.72;;;21.55;;
59016;SDS011;44800;55.600;38.134;2023-07-08T03:56:19;51.05;;;23.67;;
59016;SDS011;44800;55.600;38.134;2023-07-08T03:58:47;46.58;;;23.45;;
59016;SDS011;44800;55.600;38.134;2023-07-08T04:01:17;53.38;;;24.52;;
59016;SDS011;44800;55.600;38.134;2023-07-08T04:03:49;60.60;;;25.10;;
59016;SDS011;44800;55.600;38.134;2023-07-08T04:06:18;56.72;;;25.05;;
59016;SDS011;44800;55.600;38.134;2023-07-08T04:08:47;59.08;;;24.95;;
59016;SDS011;44800;55.600;38.134;2023-07-08T04:11:17;49.33;;;21.95;;
59016;SDS011;44800;55.600;38.134;2023-07-08T04:13:46;57.55;;;26.58;;
59016;SDS011;44800;55.600;38.134;2023-07-08T04:16:16;55.20;;;25.27;;
59016;SDS011;44800;55.600;38.134;2023-07-08T04:18:48;53.20;;;25.85;;
59016;SDS011;44800;55.600;38.134;2023-07-08T04:21:20;53.25;;;24.88;;
59016;SDS011;44800;55.600;38.134;2023-07-08T04:23:49;46.47;;;21.10;;
59016;SDS011;44800;55.600;38.134;2023-07-08T04:26:18;44.70;;;21.50;;
59016;SDS011;44800;55.600;38.134;2023-07-08T04:28:46;39.60;;;19.95;;
59016;SDS011;44800;55.600;38.134;2023-07-08T04:31:15;46.20;;;22.45;;
59016;SDS011;44800;55.600;38.134;2023-07-08T04:33:43;43.33;;;21.45;;
59016;SDS011;44800;55.600;38.134;2023-07-08T04:36:13;45.35;;;20.83;;
59016;SDS011;44800;55.600;38.134;2023-07-08T04:38:42;50.13;;;22.02;;
59016;SDS011;44800;55.600;38.134;2023-07-08T04:41:13;45.60;;;22.30;;
59016;SDS011;44800;55.600;38.134;2023-07-08T04:43:42;47.28;;;21.65;;
59016;SDS011;44800;55.600;38.134;2023-07-08T04:46:14;42.85;;;20.20;;
59016;SDS011;44800;55.600;38.134;2023-07-08T04:48:47;44.50;;;22.33;;
59016;SDS011;44800;55.600;38.134;2023-07-08T04:51:17;47.28;;;22.08;;
59016;SDS011;44800;55.600;38.134;2023-07-08T04:53:47;45.17;;;21.67;;
59016;SDS011;44800;55.600;38.134;2023-07-08T04:56:16;43.70;;;21.52;;
59016;SDS011;44800;55.600;38.134;2023-07-08T04:58:44;51.88;;;22.45;;
59016;SDS011;44800;55.600;38.134;2023-07-08T05:01:13;45.00;;;21.10;;
59016;SDS011;44800;55.600;38.134;2023-07-08T05:03:41;50.35;;;22.67;;
59016;SDS011;44800;55.600;38.134;2023-07-08T05:06:10;47.30;;;21.95;;
59016;SDS011;44800;55.600;38.134;2023-07-08T05:08:40;46.17;;;21.27;;
59016;SDS011;44800;55.600;38.134;2023-07-08T05:11:08;42.78;;;22.33;;
59016;SDS011;44800;55.600;38.134;2023-07-08T05:13:37;39.40;;;20.15;;
59016;SDS011;44800;55.600;38.134;2023-07-08T05:16:05;49.38;;;22.55;;
59016;SDS011;44800;55.600;38.134;2023-07-08T05:18:34;46.88;;;19.98;;
59016;SDS011;44800;55.600;38.134;2023-07-08T05:21:03;45.33;;;20.42;;
59016;SDS011;44800;55.600;38.134;2023-07-08T05:23:31;51.85;;;21.58;;
59016;SDS011;44800;55.600;38.134;2023-07-08T05:26:01;39.70;;;21.00;;
59016;SDS011;44800;55.600;38.134;2023-07-08T05:28:31;43.97;;;22.48;;
59016;SDS011;44800;55.600;38.134;2023-07-08T05:30:59;46.45;;;22.20;;
59016;SDS011;44800;55.600;38.134;2023-07-08T05:33:29;49.85;;;21.65;;
59016;SDS011;44800;55.600;38.134;2023-07-08T05:35:59;53.60;;;23.25;;
59016;SDS011;44800;55.600;38.134;2023-07-08T05:38:28;42.60;;;19.52;;
59016;SDS011;44800;55.600;38.134;2023-07-08T05:40:57;49.13;;;21.15;;
59016;SDS011;44800;55.600;38.134;2023-07-08T05:43:28;40.65;;;22.17;;
59016;SDS011;44800;55.600;38.134;2023-07-08T05:45:57;46.47;;;21.40;;
59016;SDS011;44800;55.600;38.134;2023-07-08T05:48:38;46.45;;;22.15;;
59016;SDS011;44800;55.600;38.134;2023-07-08T05:51:07;48.92;;;23.20;;
59016;SDS011;44800;55.600;38.134;2023-07-08T05:53:36;43.85;;;21.23;;
59016;SDS011;44800;55.600;38.134;2023-07-08T05:56:04;48.88;;;21.83;;
59016;SDS011;44800;55.600;38.134;2023-07-08T05:58:35;49.40;;;24.27;;
59016;SDS011;44800;55.600;38.134;2023-07-08T06:01:03;50.33;;;21.63;;
59016;SDS011;44800;55.600;38.134;2023-07-08T06:03:32;49.60;;;23.00;;
59016;SDS011;44800;55.600;38.134;2023-07-08T06:06:01;51.28;;;22.05;;
59016;SDS011;44800;55.600;38.134;2023-07-08T06:11:02;50.88;;;21.58;;
59016;SDS011;44800;55.600;38.134;2023-07-08T06:13:31;46.65;;;21.60;;
59016;SDS011;44800;55.600;38.134;2023-07-08T06:16:01;48.85;;;21.88;;
59016;SDS011;44800;55.600;38.134;2023-07-08T06:18:29;48.55;;;21.17;;
59016;SDS011;44800;55.600;38.134;2023-07-08T06:20:58;45.25;;;23.10;;
59016;SDS011;44800;55.600;38.134;2023-07-08T06:23:27;48.33;;;23.27;;
59016;SDS011;44800;55.600;38.134;2023-07-08T06:25:56;46.63;;;24.42;;
59016;SDS011;44800;55.600;38.134;2023-07-08T06:28:25;50.30;;;23.60;;
59016;SDS011;44800;55.600;38.134;2023-07-08T06:30:54;50.85;;;24.83;;
59016;SDS011;44800;55.600;38.134;2023-07-08T06:33:25;51.78;;;23.05;;
59016;SDS011;44800;55.600;38.134;2023-07-08T06:35:53;53.13;;;24.13;;
59016;SDS011;44800;55.600;38.134;2023-07-08T06:38:21;47.63;;;23.02;;
59016;SDS011;44800;55.600;38.134;2023-07-08T06:40:50;66.57;;;27.70;;
59016;SDS011;44800;55.600;38.134;2023-07-08T06:43:18;50.08;;;23.10;;
59016;SDS011;44800;55.600;38.134;2023-07-08T06:45:47;55.25;;;23.40;;
59016;SDS011;44800;55.600;38.134;2023-07-08T06:48:15;56.05;;;26.33;;
59016;SDS011;44800;55.600;38.134;2023-07-08T06:50:46;57.53;;;24.67;;
59016;SDS011;44800;55.600;38.134;2023-07-08T06:53:15;52.05;;;26.92;;
59016;SDS011;44800;55.600;38.134;2023-07-08T06:55:44;52.83;;;24.13;;
59016;SDS011;44800;55.600;38.134;2023-07-08T06:58:13;56.13;;;24.48;;
59016;SDS011;44800;55.600;38.134;2023-07-08T07:00:42;51.08;;;25.90;;
59016;SDS011;44800;55.600;38.134;2023-07-08T07:03:11;46.83;;;23.50;;
59016;SDS011;44800;55.600;38.134;2023-07-08T07:05:40;50.55;;;22.70;;
59016;SDS011;44800;55.600;38.134;2023-07-08T07:08:11;50.67;;;21.40;;
59016;SDS011;44800;55.600;38.134;2023-07-08T07:10:39;52.42;;;22.80;;
59016;SDS011;44800;55.600;38.134;2023-07-08T07:13:07;47.30;;;22.80;;
59016;SDS011;44800;55.600;38.134;2023-07-08T07:15:36;46.33;;;21.40;;
59016;SDS011;44800;55.600;38.134;2023-07-08T07:18:05;48.05;;;22.77;;
59016;SDS011;44800;55.600;38.134;2023-07-08T07:20:35;44.90;;;21.38;;
59016;SDS011;44800;55.600;38.134;2023-07-08T07:23:04;42.58;;;20.98;;
59016;SDS011;44800;55.600;38.134;2023-07-08T07:25:34;44.47;;;20.75;;
59016;SDS011;44800;55.600;38.134;2023-07-08T07:28:03;45.65;;;22.02;;
59016;SDS011;44800;55.600;38.134;2023-07-08T07:30:32;46.83;;;21.70;;
59016;SDS011;44800;55.600;38.134;2023-07-08T07:33:00;47.67;;;21.23;;
59016;SDS011;44800;55.600;38.134;2023-07-08T07:35:29;39.65;;;20.70;;
59016;SDS011;44800;55.600;38.134;2023-07-08T07:37:58;43.30;;;20.55;;
59016;SDS011;44800;55.600;38.134;2023-07-08T07:40:26;42.58;;;20.52;;
59016;SDS011;44800;55.600;38.134;2023-07-08T07:42:56;46.58;;;20.35;;
59016;SDS011;44800;55.600;38.134;2023-07-08T07:45:24;41.42;;;20.85;;
59016;SDS011;44800;55.600;38.134;2023-07-08T07:47:53;43.08;;;22.30;;
59016;SDS011;44800;55.600;38.134;2023-07-08T07:50:21;42.88;;;19.77;;
59016;SDS011;44800;55.600;38.134;2023-07-08T07:52:50;51.40;;;21.38;;
59016;SDS011;44800;55.600;38.134;2023-07-08T07:55:18;46.95;;;21.02;;
59016;SDS011;44800;55.600;38.134;2023-07-08T07:57:47;43.85;;;21.90;;
59016;SDS011;44800;55.600;38.134;2023-07-08T08:00:17;42.85;;;21.40;;
59016;SDS011;44800;55.600;38.134;2023-07-08T08:02:46;41.83;;;19.40;;
59016;SDS011;44800;55.600;38.134;2023-07-08T08:05:15;44.00;;;21.67;;
59016;SDS011;44800;55.600;38.134;2023-07-08T08:07:44;45.03;;;21.65;;
59016;SDS011;44800;55.600;38.134;2023-07-08T08:10:14;49.40;;;20.40;;
59016;SDS011;44800;55.600;38.134;2023-07-08T08:12:43;49.05;;;20.27;;
59016;SDS011;44800;55.600;38.134;2023-07-08T08:15:18;43.42;;;21.85;;
59016;SDS011;44800;55.600;38.134;2023-07-08T08:17:48;38.30;;;17.60;;
59016;SDS011;44800;55.600;38.134;2023-07-08T08:20:20;43.28;;;21.83;;
59016;SDS011;44800;55.600;38.134;2023-07-08T08:22:49;43.47;;;21.75;;
59016;SDS011;44800;55.600;38.134;2023-07-08T08:25:19;46.53;;;22.67;;
59016;SDS011;44800;55.600;38.134;2023-07-08T08:27:49;41.30;;;21.20;;
59016;SDS011;44800;55.600;38.134;2023-07-08T08:30:20;47.50;;;22.50;;
59016;SDS011;44800;55.600;38.134;2023-07-08T08:32:49;43.30;;;21.05;;
59016;SDS011;44800;55.600;38.134;2023-07-08T08:35:18;43.13;;;20.75;;
59016;SDS011;44800;55.600;38.134;2023-07-08T08:37:47;49.08;;;22.52;;
59016;SDS011;44800;55.600;38.134;2023-07-08T08:40:17;46.08;;;21.55;;
59016;SDS011;44800;55.600;38.134;2023-07-08T08:42:50;42.63;;;20.80;;
59016;SDS011;44800;55.600;38.134;2023-07-08T08:45:22;42.92;;;20.92;;
59016;SDS011;44800;55.600;38.134;2023-07-08T08:47:54;40.15;;;21.13;;
59016;SDS011;44800;55.600;38.134;2023-07-08T08:50:30;42.35;;;21.38;;
59016;SDS011;44800;55.600;38.134;2023-07-08T08:53:01;44.55;;;20.80;;
59016;SDS011;44800;55.600;38.134;2023-07-08T08:55:32;40.28;;;20.85;;
59016;SDS011;44800;55.600;38.134;2023-07-08T08:58:05;42.80;;;19.65;;
59016;SDS011;44800;55.600;38.134;2023-07-08T09:00:47;37.67;;;20.05;;
59016;SDS011;44800;55.600;38.134;2023-07-08T09:03:27;38.67;;;21.10;;
59016;SDS011;44800;55.600;38.134;2023-07-08T09:06:07;45.08;;;22.30;;
59016;SDS011;44800;55.600;38.134;2023-07-08T09:08:38;48.47;;;22.50;;
59016;SDS011;44800;55.600;38.134;2023-07-08T09:11:10;49.95;;;24.20;;
59016;SDS011;44800;55.600;38.134;2023-07-08T09:13:43;45.88;;;23.40;;
59016;SDS011;44800;55.600;38.134;2023-07-08T09:16:15;49.85;;;23.33;;
59016;SDS011;44800;55.600;38.134;2023-07-08T09:18:52;39.45;;;21.23;;
59016;SDS011;44800;55.600;38.134;2023-07-08T09:21:26;50.75;;;23.23;;
59016;SDS011;44800;55.600;38.134;2023-07-08T09:24:00;38.25;;;20.38;;
59016;SDS011;44800;55.600;38.134;2023-07-08T09:26:31;40.88;;;21.35;;
59016;SDS011;44800;55.600;38.134;2023-07-08T09:29:00;47.40;;;22.75;;
59016;SDS011;44800;55.600;38.134;2023-07-08T09:31:31;47.35;;;22.67;;
59016;SDS011;44800;55.600;38.134;2023-07-08T09:34:05;42.90;;;19.88;;
59016;SDS011;44800;55.600;38.134;2023-07-08T09:36:37;44.70;;;20.83;;
59016;SDS011;44800;55.600;38.134;2023-07-08T09:39:12;45.83;;;19.83;;
59016;SDS011;44800;55.600;38.134;2023-07-08T09:41:43;39.10;;;18.48;;
59016;SDS011;44800;55.600;38.134;2023-07-08T09:44:15;32.53;;;18.15;;
59016;SDS011;44800;55.600;38.134;2023-07-08T09:46:46;48.70;;;20.65;;
59016;SDS011;44800;55.600;38.134;2023-07-08T09:49:16;47.95;;;20.73;;
59016;SDS011;44800;55.600;38.134;2023-07-08T09:51:46;44.63;;;20.70;;
59016;SDS011;44800;55.600;38.134;2023-07-08T09:54:17;37.50;;;18.25;;
59016;SDS011;44800;55.600;38.134;2023-07-08T09:56:49;41.42;;;21.08;;
59016;SDS011;44800;55.600;38.134;2023-07-08T09:59:26;34.70;;;17.98;;
59016;SDS011;44800;55.600;38.134;2023-07-08T10:02:01;41.03;;;18.50;;
59016;SDS011;44800;55.600;38.134;2023-07-08T10:04:30;40.78;;;20.13;;
59016;SDS011;44800;55.600;38.134;2023-07-08T10:06:59;54.50;;;25.60;;
59016;SDS011;44800;55.600;38.134;2023-07-08T10:09:28;53.45;;;23.83;;
59016;SDS011;44800;55.600;38.134;2023-07-08T10:12:00;54.05;;;22.30;;
59016;SDS011;44800;55.600;38.134;2023-07-08T10:14:32;51.85;;;22.75;;
59016;SDS011;44800;55.600;38.134;2023-07-08T10:17:04;47.72;;;22.13;;
59016;SDS011;44800;55.600;38.134;2023-07-08T10:19:33;44.97;;;22.17;;
59016;SDS011;44800;55.600;38.134;2023-07-08T10:22:08;47.08;;;22.35;;
59016;SDS011;44800;55.600;38.134;2023-07-08T10:27:35;46.78;;;25.17;;
59016;SDS011;44800;55.600;38.134;2023-07-08T10:30:10;46.13;;;22.98;;
59016;SDS011;44800;55.600;38.134;2023-07-08T10:32:48;45.92;;;22.77;;
59016;SDS011;44800;55.600;38.134;2023-07-08T10:35:25;51.60;;;23.23;;
59016;SDS011;44800;55.600;38.134;2023-07-08T10:37:59;40.67;;;20.52;;
59016;SDS011;44800;55.600;38.134;2023-07-08T10:40:41;34.43;;;18.77;;
59016;SDS011;44800;55.600;38.134;2023-07-08T10:43:28;34.03;;;18.25;;
59016;SDS011;44800;55.600;38.134;2023-07-08T10:46:04;40.42;;;19.58;;
59016;SDS011;44800;55.600;38.134;2023-07-08T10:48:49;35.33;;;17.88;;
59016;SDS011;44800;55.600;38.134;2023-07-08T10:51:29;35.85;;;17.85;;
59016;SDS011;44800;55.600;38.134;2023-07-08T10:54:08;39.80;;;17.77;;
59016;SDS011;44800;55.600;38.134;2023-07-08T10:56:50;35.10;;;18.13;;
59016;SDS011;44800;55.600;38.134;2023-07-08T10:59:25;36.10;;;17.52;;
59016;SDS011;44800;55.600;38.134;2023-07-08T11:05:01;36.20;;;17.95;;
59016;SDS011;44800;55.600;38.134;2023-07-08T11:07:38;32.30;;;17.15;;
59016;SDS011;44800;55.600;38.134;2023-07-08T11:10:11;33.03;;;18.48;;
59016;SDS011;44800;55.600;38.134;2023-07-08T11:12:45;44.05;;;19.02;;
59016;SDS011;44800;55.600;38.134;2023-07-08T11:15:16;36.55;;;17.10;;
59016;SDS011;44800;55.600;38.134;2023-07-08T11:17:48;35.17;;;17.00;;
59016;SDS011;44800;55.600;38.134;2023-07-08T11:20:20;35.55;;;18.25;;
59016;SDS011;44800;55.600;38.134;2023-07-08T11:22:52;32.35;;;17.05;;
59016;SDS011;44800;55.600;38.134;2023-07-08T11:25:23;36.35;;;17.95;;
59016;SDS011;44800;55.600;38.134;2023-07-08T11:27:55;29.45;;;16.48;;
59016;SDS011;44800;55.600;38.134;2023-07-08T11:30:25;35.15;;;16.55;;
59016;SDS011;44800;55.600;38.134;2023-07-08T11:32:58;31.40;;;15.40;;
59016;SDS011;44800;55.600;38.134;2023-07-08T11:35:35;29.48;;;15.90;;
59016;SDS011;44800;55.600;38.134;2023-07-08T11:38:08;29.60;;;16.27;;
59016;SDS011;44800;55.600;38.134;2023-07-08T11:40:49;32.47;;;16.83;;
59016;SDS011;44800;55.600;38.134;2023-07-08T11:43:20;33.85;;;15.60;;
59016;SDS011;44800;55.600;38.134;2023-07-08T11:45:51;29.10;;;16.45;;
59016;SDS011;44800;55.600;38.134;2023-07-08T11:48:24;38.30;;;17.83;;
59016;SDS011;44800;55.600;38.134;2023-07-08T11:50:56;31.35;;;17.98;;
59016;SDS011;44800;55.600;38.134;2023-07-08T11:53:36;42.47;;;18.88;;
59016;SDS011;44800;55.600;38.134;2023-07-08T11:56:18;49.80;;;22.25;;
59016;SDS011;44800;55.600;38.134;2023-07-08T11:58:54;45.22;;;20.83;;
59016;SDS011;44800;55.600;38.134;2023-07-08T12:01:28;34.10;;;17.40;;
59016;SDS011;44800;55.600;38.134;2023-07-08T12:04:00;41.30;;;20.08;;
59016;SDS011;44800;55.600;38.134;2023-07-08T12:06:53;34.55;;;17.13;;
59016;SDS011;44800;55.600;38.134;2023-07-08T12:09:35;39.72;;;17.52;;
59016;SDS011;44800;55.600;38.134;2023-07-08T12:12:06;30.27;;;16.55;;
59016;SDS011;44800;55.600;38.134;2023-07-08T12:14:53;28.40;;;14.75;;
59016;SDS011;44800;55.600;38.134;2023-07-08T12:17:38;29.20;;;14.57;;
59016;SDS011;44800;55.600;38.134;2023-07-08T12:20:19;25.55;;;16.08;;
59016;SDS011;44800;55.600;38.134;2023-07-08T12:22:52;29.52;;;15.98;;
59016;SDS011;44800;55.600;38.134;2023-07-08T12:25:21;33.53;;;15.50;;
59016;SDS011;44800;55.600;38.134;2023-07-08T12:27:50;33.17;;;16.88;;
59016;SDS011;44800;55.600;38.134;2023-07-08T12:30:19;30.77;;;15.55;;
59016;SDS011;44800;55.600;38.134;2023-07-08T12:32:48;30.15;;;15.63;;
59016;SDS011;44800;55.600;38.134;2023-07-08T12:35:19;30.45;;;15.23;;
59016;SDS011;44800;55.600;38.134;2023-07-08T12:37:53;25.63;;;13.73;;
59016;SDS011;44800;55.600;38.134;2023-07-08T12:40:25;29.02;;;13.82;;
59016;SDS011;44800;55.600;38.134;2023-07-08T12:42:54;30.13;;;14.90;;
59016;SDS011;44800;55.600;38.134;2023-07-08T12:45:23;28.83;;;15.25;;
59016;SDS011;44800;55.600;38.134;2023-07-08T12:47:52;25.48;;;14.73;;
59016;SDS011;44800;55.600;38.134;2023-07-08T12:50:22;29.05;;;15.85;;
59016;SDS011;44800;55.600;38.134;2023-07-08T12:52:52;30.52;;;15.60;;
59016;SDS011;44800;55.600;38.134;2023-07-08T12:55:21;26.40;;;15.77;;
59016;SDS011;44800;55.600;38.134;2023-07-08T12:57:50;25.58;;;14.88;;
59016;SDS011;44800;55.600;38.134;2023-07-08T13:00:21;26.70;;;12.88;;
59016;SDS011;44800;55.600;38.134;2023-07-08T13:02:54;36.13;;;15.27;;
59016;SDS011;44800;55.600;38.134;2023-07-08T13:05:26;22.92;;;12.73;;
59016;SDS011;44800;55.600;38.134;2023-07-08T13:07:56;23.45;;;13.93;;
59016;SDS011;44800;55.600;38.134;2023-07-08T13:10:28;24.83;;;16.13;;
59016;SDS011;44800;55.600;38.134;2023-07-08T13:12:58;26.70;;;13.95;;
59016;SDS011;44800;55.600;38.134;2023-07-08T13:15:29;24.55;;;13.73;;
59016;SDS011;44800;55.600;38.134;2023-07-08T13:18:01;27.33;;;13.85;;
59016;SDS011;44800;55.600;38.134;2023-07-08T13:20:30;23.42;;;13.38;;
59016;SDS011;44800;55.600;38.134;2023-07-08T13:23:01;24.65;;;13.65;;
59016;SDS011;44800;55.600;38.134;2023-07-08T13:25:31;25.13;;;12.85;;
59016;SDS011;44800;55.600;38.134;2023-07-08T13:28:00;21.35;;;11.35;;
59016;SDS011;44800;55.600;38.134;2023-07-08T13:30:30;19.75;;;12.50;;
59016;SDS011;44800;55.600;38.134;2023-07-08T13:32:59;22.05;;;12.35;;
59016;SDS011;44800;55.600;38.134;2023-07-08T13:35:28;21.65;;;10.85;;
59016;SDS011;44800;55.600;38.134;2023-07-08T13:38:04;18.33;;;9.52;;
59016;SDS011;44800;55.600;38.134;2023-07-08T13:40:45;23.85;;;9.93;;
59016;SDS011;44800;55.600;38.134;2023-07-08T13:43:14;17.08;;;10.45;;
59016;SDS011;44800;55.600;38.134;2023-07-08T13:45:46;21.27;;;10.95;;
59016;SDS011;44800;55.600;38.134;2023-07-08T13:48:18;20.45;;;11.93;;
59016;SDS011;44800;55.600;38.134;2023-07-08T13:50:51;16.75;;;9.93;;
59016;SDS011;44800;55.600;38.134;2023-07-08T13:53:25;33.13;;;14.00;;
59016;SDS011;44800;55.600;38.134;2023-07-08T13:55:59;19.52;;;12.10;;
59016;SDS011;44800;55.600;38.134;2023-07-08T13:58:29;29.70;;;16.40;;
59016;SDS011;44800;55.600;38.134;2023-07-08T14:00:58;21.65;;;11.35;;
59016;SDS011;44800;55.600;38.134;2023-07-08T14:03:27;22.15;;;11.77;;
59016;SDS011;44800;55.600;38.134;2023-07-08T14:05:56;24.10;;;11.23;;
59016;SDS011;44800;55.600;38.134;2023-07-08T14:08:26;20.48;;;11.77;;
59016;SDS011;44800;55.600;38.134;2023-07-08T14:10:55;29.75;;;14.85;;
59016;SDS011;44800;55.600;38.134;2023-07-08T14:13:24;22.92;;;11.77;;
59016;SDS011;44800;55.600;38.134;2023-07-08T14:15:54;23.05;;;13.52;;
59016;SDS011;44800;55.600;38.134;2023-07-08T14:18:23;17.90;;;10.60;;
59016;SDS011;44800;55.600;38.134;2023-07-08T14:20:52;18.42;;;11.45;;
59016;SDS011;44800;55.600;38.134;2023-07-08T14:23:21;22.08;;;11.60;;
59016;SDS011;44800;55.600;38.134;2023-07-08T14:25:51;24.73;;;13.10;;
59016;SDS011;44800;55.600;38.134;2023-07-08T14:28:19;24.25;;;14.20;;
59016;SDS011;44800;55.600;38.134;2023-07-08T14:30:48;30.95;;;14.27;;
59016;SDS011;44800;55.600;38.134;2023-07-08T14:33:16;21.98;;;12.98;;
59016;SDS011;44800;55.600;38.134;2023-07-08T14:35:45;21.23;;;12.35;;
59016;SDS011;44800;55.600;38.134;2023-07-08T14:38:14;19.63;;;11.23;;
59016;SDS011;44800;55.600;38.134;2023-07-08T14:40:43;26.38;;;11.40;;